Alpine, Utah
Current Conditions -  °F | °C
As of 7:59 PM on Saturday 25 Oct 2014 (Local Time) from KPVU Reporting Station
Broken Clouds Broken Clouds  
Wind Chill: 63°   Ceiling: 8000
Heat Index: 63°   Visibility: 15mi
Dew Point: 39°   Wind: 3mph
Humidity: 42%   Direction: 140°SE
Pressure: 29.96"   Gusts: NA
Location:  40.45°N, 111.78°W
Report Text: KPVU 260159Z 14003KT 15SM BKN080 17/04 A2996
Loading
Personal Weather Stations






























Interactive Weather Map New forecast layout! Learn more

10-Day Weather Forecast

Advertisements
Track Severe Weather on mobile